createdAt,value
2017-11-04T00:00:44.402Z,68.33
2017-11-04T00:03:11.819Z,77.17
2017-11-04T00:05:39.270Z,71.97
2017-11-04T00:08:06.729Z,72.77
2017-11-04T00:10:34.186Z,74.10
2017-11-04T00:13:01.591Z,70.17
2017-11-04T00:15:29.011Z,77.30
2017-11-04T00:17:56.434Z,63.27
2017-11-04T00:20:23.790Z,63.27
2017-11-04T00:22:51.194Z,59.90
2017-11-04T00:25:18.581Z,65.00
2017-11-04T00:27:45.993Z,67.77
2017-11-04T00:30:13.382Z,72.43
2017-11-04T00:32:40.774Z,63.63
2017-11-04T00:35:08.231Z,72.43
2017-11-04T00:37:35.618Z,68.50
2017-11-04T00:40:03.066Z,69.77
2017-11-04T00:42:30.455Z,69.93
2017-11-04T00:44:57.879Z,79.20
2017-11-04T00:47:25.315Z,67.40
2017-11-04T00:49:52.798Z,70.60
2017-11-04T00:52:20.178Z,69.23
2017-11-04T00:54:47.583Z,76.40
2017-11-04T00:57:15.043Z,71.93
2017-11-04T00:59:42.499Z,70.57
2017-11-04T01:02:09.884Z,80.90
2017-11-04T01:04:37.311Z,83.37
2017-11-04T01:07:04.694Z,67.30
2017-11-04T01:09:32.109Z,70.80
2017-11-04T01:11:59.496Z,71.03
2017-11-04T01:14:26.939Z,72.30
2017-11-04T01:16:54.327Z,75.73
2017-11-04T01:19:21.739Z,81.80
2017-11-04T01:21:49.131Z,69.73
2017-11-04T01:24:16.523Z,84.80
2017-11-04T01:26:43.997Z,76.07
2017-11-04T01:29:11.418Z,81.83
2017-11-04T01:31:38.918Z,71.63
2017-11-04T01:34:06.371Z,85.07
2017-11-04T01:36:33.771Z,81.07
2017-11-04T01:39:01.186Z,96.53
2017-11-04T01:41:28.587Z,74.70
2017-11-04T01:43:56.004Z,69.00
2017-11-04T01:46:23.395Z,70.50
2017-11-04T01:48:50.798Z,67.67
2017-11-04T01:51:18.266Z,71.10
2017-11-04T01:53:45.120Z,77.50
2017-11-04T01:56:12.522Z,79.17
2017-11-04T01:58:40.017Z,77.60
2017-11-04T02:01:07.410Z,77.50
2017-11-04T02:03:34.827Z,80.13
2017-11-04T02:06:02.226Z,68.77
2017-11-04T02:08:29.622Z,70.90
2017-11-04T02:10:57.013Z,70.10
2017-11-04T02:13:24.446Z,79.10
2017-11-04T02:15:51.838Z,74.27
2017-11-04T02:18:19.237Z,79.70
2017-11-04T02:20:46.629Z,74.00
2017-11-04T02:23:14.022Z,73.83
2017-11-04T02:25:41.410Z,78.47
2017-11-04T02:28:08.886Z,72.50
2017-11-04T02:30:36.285Z,61.60
2017-11-04T02:33:03.698Z,50.73
2017-11-04T02:35:31.146Z,53.00
2017-11-04T02:37:58.538Z,64.33
2017-11-04T02:40:25.955Z,56.93
2017-11-04T02:42:53.356Z,61.90
2017-11-04T02:45:20.751Z,145.87
2017-11-04T02:47:48.148Z,56.10
2017-11-04T02:50:15.535Z,64.17
2017-11-04T02:52:42.976Z,45.57
2017-11-04T02:55:10.392Z,49.67
2017-11-04T02:57:37.786Z,63.10
2017-11-04T03:00:05.187Z,60.43
2017-11-04T03:02:32.591Z,41.40
2017-11-04T03:05:00.012Z,55.63
2017-11-04T03:07:27.418Z,50.40
2017-11-04T03:09:54.818Z,44.80
2017-11-04T03:12:22.274Z,49.30
2017-11-04T03:14:49.673Z,56.63
2017-11-04T03:17:17.090Z,201.27
2017-11-04T03:19:44.495Z,65.83
2017-11-04T03:22:11.885Z,65.43
2017-11-04T03:24:39.354Z,54.23
2017-11-04T03:27:06.755Z,50.37
2017-11-04T03:29:34.153Z,48.27
2017-11-04T03:32:01.559Z,52.90
2017-11-04T03:34:28.962Z,47.60
2017-11-04T03:36:56.426Z,44.10
2017-11-04T03:39:23.821Z,45.17
2017-11-04T03:41:51.240Z,44.90
2017-11-04T03:44:18.643Z,50.83
2017-11-04T03:46:46.025Z,45.77
2017-11-04T03:49:13.419Z,50.53
2017-11-04T03:51:40.815Z,78.00
2017-11-04T03:54:08.318Z,71.00
2017-11-04T03:56:35.769Z,68.03
2017-11-04T03:59:03.226Z,82.23
2017-11-04T04:01:30.642Z,76.43
2017-11-04T04:03:58.026Z,78.20
2017-11-04T04:06:25.418Z,75.03
2017-11-04T04:08:52.852Z,70.60
2017-11-04T04:11:20.238Z,61.30
2017-11-04T04:13:47.641Z,61.83
2017-11-04T04:16:15.119Z,64.47
2017-11-04T04:18:42.541Z,67.87
2017-11-04T04:21:09.930Z,52.57
2017-11-04T04:23:37.343Z,66.20
2017-11-04T04:26:04.739Z,63.67
2017-11-04T04:28:32.149Z,59.77
2017-11-04T04:30:59.550Z,67.63
2017-11-04T04:33:26.981Z,72.90
2017-11-04T04:35:54.379Z,54.47
2017-11-04T04:38:21.779Z,63.33
2017-11-04T04:40:49.174Z,53.70
2017-11-04T04:43:16.562Z,60.27
2017-11-04T04:45:43.962Z,61.07
2017-11-04T04:48:11.352Z,57.23
2017-11-04T04:50:38.754Z,63.33
2017-11-04T04:53:06.139Z,49.97
2017-11-04T04:55:33.598Z,53.30
2017-11-04T04:58:00.983Z,51.43
2017-11-04T05:00:28.388Z,62.27
2017-11-04T05:02:55.774Z,62.33
2017-11-04T05:05:23.183Z,56.67
2017-11-04T05:07:50.583Z,61.27
2017-11-04T05:10:18.035Z,62.17
2017-11-04T05:12:45.494Z,58.17
2017-11-04T05:15:12.891Z,46.90
2017-11-04T05:17:40.287Z,48.40
2017-11-04T05:20:07.695Z,59.53
2017-11-04T05:22:35.097Z,55.10
2017-11-04T05:25:02.486Z,49.90
2017-11-04T05:27:29.897Z,50.40
2017-11-04T05:29:57.282Z,54.63
2017-11-04T05:32:24.686Z,57.63
2017-11-04T05:34:52.091Z,53.40
2017-11-04T05:37:19.488Z,53.33
2017-11-04T05:39:46.871Z,55.50
2017-11-04T05:42:14.353Z,66.53
2017-11-04T05:44:41.767Z,68.37
2017-11-04T05:47:09.162Z,61.03
2017-11-04T05:49:36.551Z,51.43
2017-11-04T05:52:04.070Z,46.93
2017-11-04T05:54:32.342Z,56.13
2017-11-04T05:56:59.033Z,55.57
2017-11-04T05:59:26.435Z,53.63
2017-11-04T06:01:53.839Z,56.97
2017-11-04T06:04:21.236Z,57.10
2017-11-04T06:06:48.709Z,64.40
2017-11-04T06:09:16.133Z,54.87
2017-11-04T06:11:43.518Z,63.43
2017-11-04T06:14:10.923Z,60.27
2017-11-04T06:16:38.315Z,59.30
2017-11-04T06:19:05.788Z,66.37
2017-11-04T06:21:33.175Z,62.50
2017-11-04T06:24:00.575Z,55.70
2017-11-04T06:26:27.963Z,63.47
2017-11-04T06:28:55.374Z,51.50
2017-11-04T06:31:22.775Z,51.80
2017-11-04T06:33:50.260Z,60.73
2017-11-04T06:36:17.859Z,67.00
2017-11-04T06:38:45.338Z,60.10
2017-11-04T06:41:12.827Z,66.37
2017-11-04T06:43:40.219Z,69.47
2017-11-04T06:46:07.616Z,69.93
2017-11-04T06:48:35.002Z,59.63
2017-11-04T06:51:02.405Z,58.97
2017-11-04T06:53:29.798Z,53.70
2017-11-04T06:55:57.200Z,60.50
2017-11-04T06:58:24.591Z,68.57
2017-11-04T07:00:51.986Z,58.77
2017-11-04T07:03:19.384Z,63.30
2017-11-04T07:05:46.779Z,57.80
2017-11-04T07:08:14.199Z,63.93
2017-11-04T07:10:41.605Z,60.97
2017-11-04T07:13:08.994Z,61.70
2017-11-04T07:15:36.403Z,62.83
2017-11-04T07:18:03.814Z,57.03
2017-11-04T07:20:31.275Z,55.97
2017-11-04T07:22:58.668Z,59.17
2017-11-04T07:25:26.060Z,64.23
2017-11-04T07:27:53.534Z,54.83
2017-11-04T07:30:20.936Z,67.77
2017-11-04T07:32:48.318Z,61.47
2017-11-04T07:35:15.723Z,63.13
2017-11-04T07:37:43.111Z,61.67
2017-11-04T07:40:10.498Z,60.93
2017-11-04T07:42:37.893Z,58.37
2017-11-04T07:45:05.341Z,60.13
2017-11-04T07:47:32.742Z,61.83
2017-11-04T07:50:00.132Z,57.77
2017-11-04T07:52:27.774Z,60.23
2017-11-04T07:54:55.223Z,68.77
2017-11-04T07:57:22.623Z,57.87
2017-11-04T07:59:50.015Z,59.17
2017-11-04T08:02:17.523Z,62.43
2017-11-04T08:04:44.912Z,60.33
2017-11-04T08:07:12.331Z,58.27
2017-11-04T08:09:41.630Z,61.20
2017-11-04T08:12:09.035Z,58.37
2017-11-04T08:14:36.442Z,56.60
2017-11-04T08:17:03.898Z,50.43
2017-11-04T08:19:31.303Z,50.63
2017-11-04T08:21:58.691Z,59.40
2017-11-04T08:24:26.078Z,67.07
2017-11-04T08:26:53.498Z,57.40
2017-11-04T08:29:20.888Z,58.53
2017-11-04T08:31:48.288Z,56.03
2017-11-04T08:34:15.678Z,49.90
2017-11-04T08:36:43.190Z,58.23
2017-11-04T08:39:10.562Z,59.77
2017-11-04T08:41:38.051Z,60.80
2017-11-04T08:44:05.446Z,56.93
2017-11-04T08:46:32.844Z,50.50
2017-11-04T08:49:00.253Z,47.97
2017-11-04T08:51:27.651Z,53.13
2017-11-04T08:53:55.034Z,47.50
2017-11-04T08:56:22.435Z,44.53
2017-11-04T08:58:49.843Z,44.27
2017-11-04T09:01:17.232Z,47.13
2017-11-04T09:03:44.642Z,36.50
2017-11-04T09:06:14.852Z,46.10
2017-11-04T09:08:42.298Z,39.30
2017-11-04T09:11:09.746Z,41.20
2017-11-04T09:13:37.151Z,36.60
2017-11-04T09:16:04.560Z,41.83
2017-11-04T09:18:31.959Z,37.53
2017-11-04T09:20:59.355Z,38.30
2017-11-04T09:23:26.763Z,41.60
2017-11-04T09:25:54.155Z,35.87
2017-11-04T09:28:21.561Z,42.37
2017-11-04T09:30:48.957Z,30.80
2017-11-04T09:33:16.442Z,33.63
2017-11-04T09:35:43.860Z,40.93
2017-11-04T09:38:11.358Z,37.37
2017-11-04T09:40:38.763Z,40.80
2017-11-04T09:43:06.159Z,42.07
2017-11-04T09:45:33.562Z,40.33
2017-11-04T09:48:00.959Z,33.30
2017-11-04T09:50:28.435Z,42.00
2017-11-04T09:52:55.898Z,39.47
2017-11-04T09:55:23.309Z,37.53
2017-11-04T09:57:50.827Z,36.23
2017-11-04T10:00:18.234Z,31.80
2017-11-04T10:02:45.637Z,39.10
2017-11-04T10:05:13.039Z,46.83
2017-11-04T10:07:40.496Z,42.17
2017-11-04T10:10:07.882Z,47.57
2017-11-04T10:12:35.352Z,46.00
2017-11-04T10:15:02.759Z,44.83
2017-11-04T10:17:30.154Z,48.03
2017-11-04T10:19:57.575Z,58.03
2017-11-04T10:22:24.963Z,48.60
2017-11-04T10:24:52.403Z,51.70
2017-11-04T10:27:19.774Z,44.00
2017-11-04T10:29:47.303Z,48.63
2017-11-04T10:32:14.702Z,43.93
2017-11-04T10:34:42.139Z,43.93
2017-11-04T10:37:09.562Z,39.20
2017-11-04T10:39:37.042Z,48.80
2017-11-04T10:42:04.450Z,37.00
2017-11-04T10:44:31.837Z,44.80
2017-11-04T10:46:59.294Z,44.87
2017-11-04T10:49:26.782Z,38.20
2017-11-04T10:51:54.204Z,49.83
2017-11-04T10:54:21.615Z,46.27
2017-11-04T10:56:49.010Z,47.40
2017-11-04T10:59:16.413Z,41.63
2017-11-04T11:01:43.810Z,41.70
2017-11-04T11:04:11.208Z,43.00
2017-11-04T11:06:38.614Z,47.77
2017-11-04T11:09:05.998Z,51.57
2017-11-04T11:11:33.402Z,45.80
2017-11-04T11:14:00.804Z,65.20
2017-11-04T11:16:28.208Z,41.27
2017-11-04T11:18:55.615Z,43.10
2017-11-04T11:21:23.056Z,46.43
2017-11-04T11:23:50.444Z,42.47
2017-11-04T11:26:17.879Z,50.67
2017-11-04T11:28:45.340Z,50.43
2017-11-04T11:31:12.731Z,50.20
2017-11-04T11:33:40.130Z,47.03
2017-11-04T11:36:07.604Z,47.57
2017-11-04T11:38:35.016Z,43.57
2017-11-04T11:41:02.513Z,51.30
2017-11-04T11:43:29.975Z,47.70
2017-11-04T11:45:57.371Z,51.03
2017-11-04T11:48:24.775Z,52.60
2017-11-04T11:50:52.215Z,48.53
2017-11-04T11:53:19.712Z,48.43
2017-11-04T11:55:47.127Z,50.90
2017-11-04T11:58:14.606Z,51.37
2017-11-04T12:00:42.010Z,49.00
2017-11-04T12:03:09.442Z,45.27
2017-11-04T12:05:36.824Z,48.10
2017-11-04T12:08:04.218Z,49.00
2017-11-04T12:10:31.618Z,44.07
2017-11-04T12:12:59.023Z,47.90
2017-11-04T12:15:26.498Z,52.17
2017-11-04T12:17:53.895Z,60.53
2017-11-04T12:20:21.319Z,57.10
2017-11-04T12:22:48.721Z,55.30
2017-11-04T12:25:16.110Z,57.17
2017-11-04T12:27:43.526Z,47.73
2017-11-04T12:30:10.934Z,49.17
2017-11-04T12:32:38.326Z,55.40
2017-11-04T12:35:05.804Z,47.23
2017-11-04T12:37:33.190Z,58.57
2017-11-04T12:40:00.615Z,58.97
2017-11-04T12:42:28.071Z,50.90
2017-11-04T12:44:55.471Z,51.87
2017-11-04T12:47:22.877Z,51.93
2017-11-04T12:49:50.291Z,53.53
2017-11-04T12:52:17.690Z,56.13
2017-11-04T12:54:45.151Z,58.73
2017-11-04T12:57:12.606Z,52.93
2017-11-04T12:59:40.011Z,55.53
2017-11-04T13:02:07.533Z,55.53
2017-11-04T13:04:34.923Z,51.30
2017-11-04T13:07:02.331Z,51.83
2017-11-04T13:09:29.731Z,50.27
2017-11-04T13:11:57.126Z,55.47
2017-11-04T13:14:24.526Z,57.10
2017-11-04T13:16:51.951Z,52.73
2017-11-04T13:19:19.348Z,53.43
2017-11-04T13:21:46.795Z,52.80
2017-11-04T13:24:14.218Z,49.07
2017-11-04T13:26:41.679Z,50.07
2017-11-04T13:29:09.067Z,48.50
2017-11-04T13:31:36.464Z,57.63
2017-11-04T13:34:03.846Z,57.70
2017-11-04T13:36:31.255Z,55.90
2017-11-04T13:38:58.642Z,53.50
2017-11-04T13:41:26.106Z,52.40
2017-11-04T13:43:53.490Z,57.57
2017-11-04T13:46:20.886Z,47.93
2017-11-04T13:48:48.271Z,55.93
2017-11-04T13:51:15.696Z,47.67
2017-11-04T13:53:43.079Z,53.33
2017-11-04T13:56:10.551Z,51.43
2017-11-04T13:58:38.130Z,55.27
2017-11-04T14:01:05.582Z,55.37
2017-11-04T14:03:33.027Z,57.67
2017-11-04T14:06:00.478Z,56.77
2017-11-04T14:08:27.876Z,55.87
2017-11-04T14:10:55.263Z,61.20
2017-11-04T14:13:22.666Z,57.27
2017-11-04T14:15:50.055Z,54.50
2017-11-04T14:18:17.447Z,55.67
2017-11-04T14:20:44.836Z,56.40
2017-11-04T14:23:12.271Z,53.10
2017-11-04T14:25:39.719Z,51.00
2017-11-04T14:28:07.131Z,60.20
2017-11-04T14:30:34.542Z,51.60
2017-11-04T14:33:01.957Z,48.03
2017-11-04T14:35:29.344Z,50.30
2017-11-04T14:37:56.759Z,49.47
2017-11-04T14:40:24.142Z,54.13
2017-11-04T14:42:51.543Z,58.00
2017-11-04T14:45:18.944Z,53.30
2017-11-04T14:47:46.326Z,50.10
2017-11-04T14:50:13.732Z,54.13
2017-11-04T14:52:41.126Z,53.67
2017-11-04T14:55:08.599Z,55.20
2017-11-04T14:57:35.995Z,48.97
2017-11-04T15:00:03.960Z,55.05
2017-11-04T15:02:31.364Z,51.37
2017-11-04T15:04:58.839Z,48.43
2017-11-04T15:07:26.223Z,45.03
2017-11-04T15:09:53.627Z,50.80
2017-11-04T15:12:21.023Z,48.87
2017-11-04T15:14:48.415Z,50.90
2017-11-04T15:17:15.821Z,52.27
2017-11-04T15:19:43.262Z,58.77
2017-11-04T15:22:10.658Z,52.07
2017-11-04T15:24:38.071Z,51.30
2017-11-04T15:27:05.526Z,53.57
2017-11-04T15:29:32.998Z,46.67
2017-11-04T15:32:00.451Z,48.37
2017-11-04T15:34:27.847Z,50.50
2017-11-04T15:36:55.331Z,51.60
2017-11-04T15:39:22.724Z,52.23
2017-11-04T15:41:50.118Z,54.13
2017-11-04T15:44:17.506Z,51.80
2017-11-04T15:46:44.902Z,48.33
2017-11-04T15:49:12.295Z,48.90
2017-11-04T15:51:39.695Z,52.97
2017-11-04T15:54:07.084Z,44.27
2017-11-04T15:56:34.514Z,45.17
2017-11-04T15:59:01.899Z,49.50
2017-11-04T16:01:29.310Z,51.10
2017-11-04T16:03:56.701Z,50.60
2017-11-04T16:06:24.090Z,50.03
2017-11-04T16:08:51.550Z,51.23
2017-11-04T16:11:18.947Z,47.07
2017-11-04T16:13:46.343Z,43.00
2017-11-04T16:16:13.750Z,46.57
2017-11-04T16:18:41.162Z,45.27
2017-11-04T16:21:08.626Z,47.37
2017-11-04T16:23:36.099Z,50.27
2017-11-04T16:26:03.519Z,46.67
2017-11-04T16:28:30.909Z,42.53
2017-11-04T16:30:58.304Z,44.23
2017-11-04T16:33:25.698Z,47.13
2017-11-04T16:35:53.091Z,50.17
2017-11-04T16:38:20.486Z,52.47
2017-11-04T16:40:47.978Z,50.43
2017-11-04T16:43:15.381Z,55.17
2017-11-04T16:45:42.878Z,52.30
2017-11-04T16:48:10.271Z,47.90
2017-11-04T16:50:37.696Z,51.43
2017-11-04T16:53:05.652Z,47.70
2017-11-04T16:55:33.029Z,47.70
2017-11-04T16:58:00.474Z,60.27
2017-11-04T17:00:27.888Z,51.73
2017-11-04T17:02:55.290Z,48.53
2017-11-04T17:05:22.683Z,49.83
2017-11-04T17:07:50.083Z,57.27
2017-11-04T17:10:17.469Z,53.07
2017-11-04T17:12:44.906Z,61.83
2017-11-04T17:15:12.308Z,57.80
2017-11-04T17:17:39.702Z,52.30
2017-11-04T17:20:07.189Z,53.10
2017-11-04T17:22:34.580Z,53.13
2017-11-04T17:25:01.976Z,52.20
2017-11-04T17:27:29.363Z,52.47
2017-11-04T17:29:56.754Z,48.70
2017-11-04T17:32:24.267Z,53.37
2017-11-04T17:34:51.718Z,60.77
2017-11-04T17:37:19.113Z,55.20
2017-11-04T17:39:46.528Z,52.73
2017-11-04T17:42:13.916Z,54.83
2017-11-04T17:44:41.331Z,53.80
2017-11-04T17:47:08.727Z,55.13
2017-11-04T17:49:36.118Z,59.73
2017-11-04T17:52:03.501Z,59.40
2017-11-04T17:54:30.924Z,59.20
2017-11-04T17:56:58.304Z,58.20
2017-11-04T17:59:25.700Z,54.93
2017-11-04T18:01:53.085Z,50.93
2017-11-04T18:04:20.478Z,63.70
2017-11-04T18:06:47.878Z,60.20
2017-11-04T18:09:15.391Z,69.63
2017-11-04T18:11:42.779Z,51.87
2017-11-04T18:14:10.172Z,59.23
2017-11-04T18:16:37.574Z,54.87
2017-11-04T18:19:05.027Z,55.27
2017-11-04T18:21:32.415Z,55.43
2017-11-04T18:23:59.878Z,47.53
2017-11-04T18:26:27.326Z,55.83
2017-11-04T18:28:54.718Z,54.70
2017-11-04T18:31:22.122Z,47.93
2017-11-04T18:33:49.598Z,56.23
2017-11-04T18:36:17.051Z,53.83
2017-11-04T18:38:44.506Z,53.30
2017-11-04T18:41:11.908Z,50.60
2017-11-04T18:43:39.293Z,52.73
2017-11-04T18:46:06.735Z,52.93
2017-11-04T18:48:34.123Z,55.70
2017-11-04T18:51:01.528Z,51.93
2017-11-04T18:53:29.048Z,51.53
2017-11-04T18:55:56.448Z,46.97
2017-11-04T18:58:23.850Z,47.97
2017-11-04T19:00:51.243Z,51.07
2017-11-04T19:03:18.643Z,49.23
2017-11-04T19:05:46.058Z,46.03
2017-11-04T19:08:13.458Z,47.60
2017-11-04T19:10:40.941Z,42.00
2017-11-04T19:13:08.348Z,50.37
2017-11-04T19:15:35.731Z,41.83
2017-11-04T19:18:03.198Z,44.53
2017-11-04T19:20:30.595Z,48.80
2017-11-04T19:22:58.011Z,45.13
2017-11-04T19:25:25.470Z,45.00
2017-11-04T19:27:52.863Z,42.20
2017-11-04T19:30:20.251Z,43.50
2017-11-04T19:32:47.734Z,38.43
2017-11-04T19:35:15.197Z,42.33
2017-11-04T19:37:42.655Z,43.40
2017-11-04T19:40:10.050Z,45.27
2017-11-04T19:42:37.459Z,44.77
2017-11-04T19:45:04.846Z,42.07
2017-11-04T19:47:32.243Z,43.40
2017-11-04T19:49:59.726Z,38.10
2017-11-04T19:52:27.143Z,39.33
2017-11-04T19:54:54.644Z,39.40
2017-11-04T19:57:22.042Z,43.00
2017-11-04T19:59:49.442Z,37.40
2017-11-04T20:02:16.849Z,42.07
2017-11-04T20:04:44.268Z,40.37
2017-11-04T20:07:11.722Z,35.40
2017-11-04T20:09:39.178Z,36.67
2017-11-04T20:12:06.573Z,38.23
2017-11-04T20:14:33.971Z,35.40
2017-11-04T20:17:01.364Z,34.07
2017-11-04T20:19:28.799Z,33.33
2017-11-04T20:21:56.191Z,33.50
2017-11-04T20:24:23.595Z,39.20
2017-11-04T20:26:51.018Z,36.53
2017-11-04T20:29:18.436Z,45.83
2017-11-04T20:31:45.882Z,38.43
2017-11-04T20:34:13.280Z,33.03
2017-11-04T20:36:40.672Z,28.60
2017-11-04T20:39:08.067Z,31.20
2017-11-04T20:41:35.501Z,35.20
2017-11-04T20:44:02.905Z,35.00
2017-11-04T20:46:30.311Z,36.53
2017-11-04T20:48:57.729Z,29.70
2017-11-04T20:51:25.102Z,27.07
2017-11-04T20:53:52.498Z,33.80
2017-11-04T20:56:19.887Z,26.37
2017-11-04T20:58:47.294Z,29.20
2017-11-04T21:01:14.757Z,26.70
2017-11-04T21:03:42.143Z,25.57
2017-11-04T21:06:09.554Z,27.73
2017-11-04T21:08:36.946Z,25.20
2017-11-04T21:11:04.344Z,30.43
2017-11-04T21:13:31.818Z,29.17
2017-11-04T21:15:59.223Z,31.97
2017-11-04T21:18:26.639Z,29.37
2017-11-04T21:20:54.047Z,28.20
2017-11-04T21:23:21.430Z,26.63
2017-11-04T21:25:48.833Z,28.67
2017-11-04T21:28:16.352Z,32.20
2017-11-04T21:30:43.751Z,27.13
2017-11-04T21:33:11.135Z,29.63
2017-11-04T21:35:38.591Z,35.50
2017-11-04T21:38:05.981Z,25.33
2017-11-04T21:40:33.371Z,31.17
2017-11-04T21:43:00.799Z,26.73
2017-11-04T21:45:28.190Z,24.73
2017-11-04T21:47:55.611Z,29.23
2017-11-04T21:50:23.007Z,26.90
2017-11-04T21:52:50.431Z,34.77
2017-11-04T21:55:17.818Z,32.07
2017-11-04T21:57:45.222Z,29.93
2017-11-04T22:00:12.615Z,27.50
2017-11-04T22:05:31.685Z,27.27
2017-11-04T22:07:59.132Z,27.43
2017-11-04T22:10:26.515Z,26.03
2017-11-04T22:12:53.950Z,30.27
2017-11-04T22:15:21.335Z,26.43
2017-11-04T22:17:48.735Z,28.97
2017-11-04T22:20:16.413Z,25.17
2017-11-04T22:22:43.813Z,24.63
2017-11-04T22:25:11.203Z,29.40
2017-11-04T22:27:38.677Z,31.63
2017-11-04T22:30:06.075Z,35.67
2017-11-04T22:32:33.471Z,36.63
2017-11-04T22:35:00.855Z,35.37
2017-11-04T22:37:28.254Z,29.83
2017-11-04T22:39:55.735Z,32.53
2017-11-04T22:42:23.131Z,29.93
2017-11-04T22:44:50.561Z,32.27
2017-11-04T22:47:18.013Z,27.90
2017-11-04T22:49:45.398Z,37.07
2017-11-04T22:52:12.951Z,29.13
2017-11-04T22:54:40.394Z,31.63
2017-11-04T22:57:07.839Z,32.17
2017-11-04T22:59:35.290Z,24.87
2017-11-04T23:02:02.710Z,26.83
2017-11-04T23:04:30.106Z,32.20
2017-11-04T23:06:57.495Z,29.30
2017-11-04T23:09:24.900Z,28.33
2017-11-04T23:11:52.370Z,31.63
2017-11-04T23:14:19.771Z,33.77
2017-11-04T23:16:47.171Z,32.00
2017-11-04T23:19:14.564Z,30.30
2017-11-04T23:21:41.990Z,30.93
2017-11-04T23:24:09.387Z,34.67
2017-11-04T23:26:36.775Z,32.63
2017-11-04T23:29:04.167Z,29.40
2017-11-04T23:31:31.618Z,27.53
2017-11-04T23:33:59.036Z,31.33
2017-11-04T23:36:26.422Z,32.07
2017-11-04T23:38:53.899Z,33.70
2017-11-04T23:41:21.646Z,29.50
2017-11-04T23:43:49.138Z,33.00
2017-11-04T23:46:16.575Z,38.77
2017-11-04T23:48:43.966Z,39.30
2017-11-04T23:51:11.384Z,43.80
2017-11-04T23:53:38.851Z,43.00
2017-11-04T23:56:06.307Z,35.93
2017-11-04T23:58:33.767Z,37.20
